sensor_id;sensor_type;location;lat;lon;timestamp;pressure;altitude;pressure_sealevel;temperature;humidity
16100;BME280;8154;50.830;12.082;2023-07-20T00:01:27;99073.00;;;29.96;35.01
16100;BME280;8154;50.830;12.082;2023-07-20T00:03:54;99072.41;;;29.94;35.03
16100;BME280;8154;50.830;12.082;2023-07-20T00:06:23;99067.03;;;29.94;34.96
16100;BME280;8154;50.830;12.082;2023-07-20T00:08:54;99075.34;;;29.93;34.67
16100;BME280;8154;50.830;12.082;2023-07-20T00:11:27;99063.13;;;29.85;34.82
16100;BME280;8154;50.830;12.082;2023-07-20T00:13:56;99085.63;;;29.96;34.88
16100;BME280;8154;50.830;12.082;2023-07-20T00:16:25;99077.31;;;29.97;34.66
16100;BME280;8154;50.830;12.082;2023-07-20T00:18:55;99075.44;;;29.98;34.63
16100;BME280;8154;50.830;12.082;2023-07-20T00:21:25;99067.09;;;29.99;34.81
16100;BME280;8154;50.830;12.082;2023-07-20T00:23:52;99061.72;;;29.99;34.67
16100;BME280;8154;50.830;12.082;2023-07-20T00:26:19;99059.50;;;29.96;34.72
16100;BME280;8154;50.830;12.082;2023-07-20T00:28:48;99052.22;;;29.97;34.46
16100;BME280;8154;50.830;12.082;2023-07-20T00:31:16;99047.41;;;29.99;34.45
16100;BME280;8154;50.830;12.082;2023-07-20T00:33:45;99042.28;;;29.97;34.46
16100;BME280;8154;50.830;12.082;2023-07-20T00:36:12;99051.97;;;29.98;34.40
16100;BME280;8154;50.830;12.082;2023-07-20T00:38:42;99054.66;;;29.98;34.06
16100;BME280;8154;50.830;12.082;2023-07-20T00:41:10;99056.31;;;29.99;34.30
16100;BME280;8154;50.830;12.082;2023-07-20T00:43:37;99050.34;;;29.97;34.56
16100;BME280;8154;50.830;12.082;2023-07-20T00:46:05;99044.72;;;29.99;34.61
16100;BME280;8154;50.830;12.082;2023-07-20T00:48:33;99039.31;;;29.99;34.45
16100;BME280;8154;50.830;12.082;2023-07-20T00:51:00;99030.63;;;29.92;34.46
16100;BME280;8154;50.830;12.082;2023-07-20T00:53:28;99044.97;;;29.97;34.57
16100;BME280;8154;50.830;12.082;2023-07-20T00:55:55;99048.16;;;29.94;34.63
16100;BME280;8154;50.830;12.082;2023-07-20T00:58:24;99052.22;;;29.97;34.02
16100;BME280;8154;50.830;12.082;2023-07-20T01:00:56;99046.59;;;29.98;34.30
16100;BME280;8154;50.830;12.082;2023-07-20T01:03:25;99052.81;;;29.99;34.11
16100;BME280;8154;50.830;12.082;2023-07-20T01:09:14;99048.00;;;30.01;34.05
16100;BME280;8154;50.830;12.082;2023-07-20T01:12:08;99052.81;;;29.99;34.37
16100;BME280;8154;50.830;12.082;2023-07-20T01:14:40;99052.81;;;29.99;34.29
16100;BME280;8154;50.830;12.082;2023-07-20T01:17:09;99047.41;;;29.99;34.05
16100;BME280;8154;50.830;12.082;2023-07-20T01:19:35;99048.72;;;29.96;34.37
16100;BME280;8154;50.830;12.082;2023-07-20T01:22:28;99049.53;;;29.97;34.36
16100;BME280;8154;50.830;12.082;2023-07-20T01:33:26;99038.75;;;29.97;34.03
16100;BME280;8154;50.830;12.082;2023-07-20T01:36:12;99036.56;;;29.94;34.32
16100;BME280;8154;50.830;12.082;2023-07-20T01:38:59;99040.66;;;29.96;34.05
16100;BME280;8154;50.830;12.082;2023-07-20T01:41:43;99036.31;;;29.95;33.99
16100;BME280;8154;50.830;12.082;2023-07-20T01:44:16;99039.81;;;29.96;34.26
16100;BME280;8154;50.830;12.082;2023-07-20T01:46:46;99040.66;;;29.96;34.22
16100;BME280;8154;50.830;12.082;2023-07-20T01:49:14;99038.44;;;29.93;34.18
16100;BME280;8154;50.830;12.082;2023-07-20T01:51:42;99037.38;;;29.94;34.13
16100;BME280;8154;50.830;12.082;2023-07-20T01:54:12;99043.59;;;29.95;34.21
16100;BME280;8154;50.830;12.082;2023-07-20T01:56:39;99044.97;;;29.97;33.90
16100;BME280;8154;50.830;12.082;2023-07-20T01:59:06;99018.09;;;29.86;34.00
16100;BME280;8154;50.830;12.082;2023-07-20T02:01:32;99033.84;;;29.94;33.84
16100;BME280;8154;50.830;12.082;2023-07-20T02:03:58;99032.81;;;29.95;33.82
16100;BME280;8154;50.830;12.082;2023-07-20T02:06:24;99039.50;;;29.92;34.15
16100;BME280;8154;50.830;12.082;2023-07-20T02:08:50;99043.00;;;29.93;33.82
16100;BME280;8154;50.830;12.082;2023-07-20T02:11:16;99039.75;;;29.91;34.26
16100;BME280;8154;50.830;12.082;2023-07-20T02:13:43;99041.41;;;29.92;33.90
16100;BME280;8154;50.830;12.082;2023-07-20T02:16:09;99038.69;;;29.92;33.91
16100;BME280;8154;50.830;12.082;2023-07-20T02:18:35;99046.78;;;29.92;34.23
16100;BME280;8154;50.830;12.082;2023-07-20T02:21:03;99045.72;;;29.93;33.93
16100;BME280;8154;50.830;12.082;2023-07-20T02:23:30;99019.09;;;29.80;33.88
16100;BME280;8154;50.830;12.082;2023-07-20T02:25:56;99033.78;;;29.89;34.02
16100;BME280;8154;50.830;12.082;2023-07-20T02:28:23;99046.78;;;29.92;34.01
16100;BME280;8154;50.830;12.082;2023-07-20T02:30:50;99040.31;;;29.93;33.90
16100;BME280;8154;50.830;12.082;2023-07-20T02:33:16;99047.56;;;29.92;33.99
16100;BME280;8154;50.830;12.082;2023-07-20T02:35:42;99055.91;;;29.91;34.07
16100;BME280;8154;50.830;12.082;2023-07-20T02:38:08;99044.56;;;29.89;34.02
16100;BME280;8154;50.830;12.082;2023-07-20T02:40:34;99042.94;;;29.88;34.21
16100;BME280;8154;50.830;12.082;2023-07-20T02:43:00;99043.75;;;29.88;34.11
16100;BME280;8154;50.830;12.082;2023-07-20T02:45:27;99051.03;;;29.88;34.04
16100;BME280;8154;50.830;12.082;2023-07-20T02:47:53;99056.41;;;29.88;33.98
16100;BME280;8154;50.830;12.082;2023-07-20T02:50:19;99054.78;;;29.87;34.19
16100;BME280;8154;50.830;12.082;2023-07-20T02:52:46;99049.94;;;29.89;34.13
16100;BME280;8154;50.830;12.082;2023-07-20T02:55:13;99051.03;;;29.88;33.80
16100;BME280;8154;50.830;12.082;2023-07-20T02:57:39;99057.72;;;29.85;33.79
16100;BME280;8154;50.830;12.082;2023-07-20T03:00:06;99055.81;;;29.86;34.08
16100;BME280;8154;50.830;12.082;2023-07-20T03:02:32;99057.47;;;29.87;33.73
16100;BME280;8154;50.830;12.082;2023-07-20T03:05:00;99066.34;;;29.87;34.04
16100;BME280;8154;50.830;12.082;2023-07-20T03:07:30;99057.88;;;29.79;33.72
16100;BME280;8154;50.830;12.082;2023-07-20T03:09:56;99071.75;;;29.87;33.73
16100;BME280;8154;50.830;12.082;2023-07-20T03:12:23;99071.75;;;29.87;34.06
16100;BME280;8154;50.830;12.082;2023-07-20T03:14:50;99067.44;;;29.86;33.75
16100;BME280;8154;50.830;12.082;2023-07-20T03:17:16;99066.59;;;29.86;33.72
16100;BME280;8154;50.830;12.082;2023-07-20T03:19:42;99088.41;;;29.84;33.66
16100;BME280;8154;50.830;12.082;2023-07-20T03:22:10;99084.09;;;29.83;33.99
16100;BME280;8154;50.830;12.082;2023-07-20T03:24:36;99086.53;;;29.85;33.90
16100;BME280;8154;50.830;12.082;2023-07-20T03:27:03;99087.03;;;29.82;34.11
16100;BME280;8154;50.830;12.082;2023-07-20T03:29:31;99090.31;;;29.84;34.19
16100;BME280;8154;50.830;12.082;2023-07-20T03:31:58;99089.47;;;29.83;33.72
16100;BME280;8154;50.830;12.082;2023-07-20T03:34:25;99089.72;;;29.82;33.86
16100;BME280;8154;50.830;12.082;2023-07-20T03:36:51;99090.56;;;29.82;33.87
16100;BME280;8154;50.830;12.082;2023-07-20T03:39:17;99091.34;;;29.83;33.88
16100;BME280;8154;50.830;12.082;2023-07-20T03:41:43;99076.50;;;29.80;33.65
16100;BME280;8154;50.830;12.082;2023-07-20T03:44:10;99071.94;;;29.81;33.66
16100;BME280;8154;50.830;12.082;2023-07-20T03:46:37;99083.75;;;29.80;33.60
16100;BME280;8154;50.830;12.082;2023-07-20T03:49:03;99078.38;;;29.80;33.69
16100;BME280;8154;50.830;12.082;2023-07-20T03:51:32;99083.75;;;29.80;33.77
16100;BME280;8154;50.830;12.082;2023-07-20T03:53:59;99079.44;;;29.79;33.75
16100;BME280;8154;50.830;12.082;2023-07-20T03:56:25;99081.06;;;29.80;33.96
16100;BME280;8154;50.830;12.082;2023-07-20T03:58:52;99093.50;;;29.81;33.61
16100;BME280;8154;50.830;12.082;2023-07-20T04:01:18;99096.44;;;29.79;33.91
16100;BME280;8154;50.830;12.082;2023-07-20T04:03:44;99100.50;;;29.82;33.92
16100;BME280;8154;50.830;12.082;2023-07-20T04:06:20;99109.66;;;29.81;33.82
16100;BME280;8154;50.830;12.082;2023-07-20T04:08:46;99103.44;;;29.80;33.91
16100;BME280;8154;50.830;12.082;2023-07-20T04:11:15;99101.56;;;29.81;33.66
16100;BME280;8154;50.830;12.082;2023-07-20T04:13:41;99100.41;;;29.77;33.68
16100;BME280;8154;50.830;12.082;2023-07-20T04:16:07;99105.81;;;29.77;33.69
16100;BME280;8154;50.830;12.082;2023-07-20T04:18:34;99101.47;;;29.76;33.60
16100;BME280;8154;50.830;12.082;2023-07-20T04:21:01;99098.22;;;29.74;33.72
16100;BME280;8154;50.830;12.082;2023-07-20T04:23:27;99095.75;;;29.72;33.94
16100;BME280;8154;50.830;12.082;2023-07-20T04:25:54;99089.56;;;29.72;34.12
16100;BME280;8154;50.830;12.082;2023-07-20T04:28:21;99090.38;;;29.72;34.04
16100;BME280;8154;50.830;12.082;2023-07-20T04:30:49;99061.22;;;29.53;33.93
16100;BME280;8154;50.830;12.082;2023-07-20T04:33:18;99096.25;;;29.69;34.10
16100;BME280;8154;50.830;12.082;2023-07-20T04:35:48;99095.75;;;29.72;33.98
16100;BME280;8154;50.830;12.082;2023-07-20T04:38:15;99099.28;;;29.73;34.13
16100;BME280;8154;50.830;12.082;2023-07-20T04:40:47;99097.88;;;29.70;33.66
16100;BME280;8154;50.830;12.082;2023-07-20T04:43:15;99098.94;;;29.69;33.87
16100;BME280;8154;50.830;12.082;2023-07-20T04:45:42;99104.59;;;29.68;34.00
16100;BME280;8154;50.830;12.082;2023-07-20T04:48:15;99110.44;;;29.65;33.76
16100;BME280;8154;50.830;12.082;2023-07-20T04:50:43;99072.88;;;29.42;34.04
16100;BME280;8154;50.830;12.082;2023-07-20T04:53:11;99114.78;;;29.66;34.04
16100;BME280;8154;50.830;12.082;2023-07-20T04:55:39;99111.28;;;29.65;33.81
16100;BME280;8154;50.830;12.082;2023-07-20T04:58:06;99103.31;;;29.59;33.99
16100;BME280;8154;50.830;12.082;2023-07-20T05:00:33;99114.44;;;29.62;33.81
16100;BME280;8154;50.830;12.082;2023-07-20T05:02:59;99113.03;;;29.60;33.78
16100;BME280;8154;50.830;12.082;2023-07-20T05:05:25;99112.78;;;29.61;33.75
16100;BME280;8154;50.830;12.082;2023-07-20T05:07:51;99104.41;;;29.58;33.65
16100;BME280;8154;50.830;12.082;2023-07-20T05:10:20;99118.16;;;29.61;33.92
16100;BME280;8154;50.830;12.082;2023-07-20T05:12:50;99116.31;;;29.62;34.11
16100;BME280;8154;50.830;12.082;2023-07-20T05:15:16;99124.16;;;29.63;33.66
16100;BME280;8154;50.830;12.082;2023-07-20T05:17:42;99107.63;;;29.60;33.75
16100;BME280;8154;50.830;12.082;2023-07-20T05:20:08;99102.75;;;29.57;33.84
16100;BME280;8154;50.830;12.082;2023-07-20T05:22:42;99109.44;;;29.54;33.97
16100;BME280;8154;50.830;12.082;2023-07-20T05:25:10;99116.91;;;29.64;34.05
16100;BME280;8154;50.830;12.082;2023-07-20T05:27:39;99123.31;;;29.63;34.11
16100;BME280;8154;50.830;12.082;2023-07-20T05:30:07;99132.47;;;29.62;33.86
16100;BME280;8154;50.830;12.082;2023-07-20T05:32:34;99126.88;;;29.63;33.70
16100;BME280;8154;50.830;12.082;2023-07-20T05:35:00;99116.31;;;29.62;33.93
16100;BME280;8154;50.830;12.082;2023-07-20T05:37:27;99125.44;;;29.61;34.02
16100;BME280;8154;50.830;12.082;2023-07-20T05:39:52;99122.50;;;29.62;33.82
16100;BME280;8154;50.830;12.082;2023-07-20T05:42:19;99124.63;;;29.60;34.04
16100;BME280;8154;50.830;12.082;2023-07-20T05:44:45;99133.28;;;29.62;33.67
16100;BME280;8154;50.830;12.082;2023-07-20T05:47:15;99120.63;;;29.63;33.92
16100;BME280;8154;50.830;12.082;2023-07-20T05:49:42;99126.63;;;29.65;33.76
16100;BME280;8154;50.830;12.082;2023-07-20T05:52:08;99125.53;;;29.66;33.95
16100;BME280;8154;50.830;12.082;2023-07-20T05:54:35;99126.94;;;29.68;33.98
16100;BME280;8154;50.830;12.082;2023-07-20T05:57:02;99117.03;;;29.57;33.60
16100;BME280;8154;50.830;12.082;2023-07-20T05:59:28;99139.00;;;29.66;33.51
16100;BME280;8154;50.830;12.082;2023-07-20T06:01:57;99137.97;;;29.67;33.66
16100;BME280;8154;50.830;12.082;2023-07-20T06:04:23;99139.84;;;29.66;33.90
16100;BME280;8154;50.830;12.082;2023-07-20T06:06:49;99135.63;;;29.59;33.85
16100;BME280;8154;50.830;12.082;2023-07-20T06:09:15;99141.59;;;29.61;33.64
16100;BME280;8154;50.830;12.082;2023-07-20T06:11:41;99125.75;;;29.48;33.82
16100;BME280;8154;50.830;12.082;2023-07-20T06:14:07;99139.41;;;29.58;33.98
16100;BME280;8154;50.830;12.082;2023-07-20T06:16:33;99138.56;;;29.57;34.07
16100;BME280;8154;50.830;12.082;2023-07-20T06:19:02;99145.34;;;29.60;33.88
16100;BME280;8154;50.830;12.082;2023-07-20T06:21:29;99128.53;;;29.53;34.01
16100;BME280;8154;50.830;12.082;2023-07-20T06:23:55;99140.44;;;29.57;33.96
16100;BME280;8154;50.830;12.082;2023-07-20T06:26:21;99137.75;;;29.57;33.67
16100;BME280;8154;50.830;12.082;2023-07-20T06:28:47;99142.59;;;29.55;33.62
16100;BME280;8154;50.830;12.082;2023-07-20T06:31:13;99139.88;;;29.55;33.62
16100;BME280;8154;50.830;12.082;2023-07-20T06:33:40;99139.66;;;29.56;33.79
16100;BME280;8154;50.830;12.082;2023-07-20T06:36:06;99136.03;;;29.51;34.02
16100;BME280;8154;50.830;12.082;2023-07-20T06:38:32;99138.06;;;29.44;33.89
16100;BME280;8154;50.830;12.082;2023-07-20T06:40:58;99129.31;;;29.37;34.05
16100;BME280;8154;50.830;12.082;2023-07-20T06:43:24;99123.34;;;29.35;34.13
16100;BME280;8154;50.830;12.082;2023-07-20T06:45:54;99123.59;;;29.33;34.27
16100;BME280;8154;50.830;12.082;2023-07-20T06:48:21;99129.22;;;29.32;34.42
16100;BME280;8154;50.830;12.082;2023-07-20T06:50:47;99124.66;;;29.32;34.34
16100;BME280;8154;50.830;12.082;2023-07-20T06:53:13;99123.03;;;29.31;34.47
16100;BME280;8154;50.830;12.082;2023-07-20T06:55:43;99120.09;;;29.33;34.06
16100;BME280;8154;50.830;12.082;2023-07-20T06:58:11;99128.97;;;29.33;34.34
16100;BME280;8154;50.830;12.082;2023-07-20T07:00:37;99127.69;;;29.36;34.20
16100;BME280;8154;50.830;12.082;2023-07-20T07:03:05;99115.19;;;29.30;34.02
16100;BME280;8154;50.830;12.082;2023-07-20T07:05:31;99125.09;;;29.41;34.08
16100;BME280;8154;50.830;12.082;2023-07-20T07:07:58;99125.88;;;29.41;34.24
16100;BME280;8154;50.830;12.082;2023-07-20T07:10:24;99126.47;;;29.43;34.15
16100;BME280;8154;50.830;12.082;2023-07-20T07:12:50;99123.53;;;29.45;34.25
16100;BME280;8154;50.830;12.082;2023-07-20T07:15:16;99122.47;;;29.46;34.29
16100;BME280;8154;50.830;12.082;2023-07-20T07:17:42;99127.84;;;29.46;34.05
16100;BME280;8154;50.830;12.082;2023-07-20T07:20:09;99119.22;;;29.44;34.03
16100;BME280;8154;50.830;12.082;2023-07-20T07:22:35;99127.63;;;29.47;33.97
16100;BME280;8154;50.830;12.082;2023-07-20T07:25:01;99127.38;;;29.49;34.07
16100;BME280;8154;50.830;12.082;2023-07-20T07:27:29;99131.72;;;29.50;34.21
16100;BME280;8154;50.830;12.082;2023-07-20T07:29:55;99125.50;;;29.49;33.89
16100;BME280;8154;50.830;12.082;2023-07-20T07:32:24;99129.56;;;29.52;34.17
16100;BME280;8154;50.830;12.082;2023-07-20T07:34:50;99129.56;;;29.52;33.99
16100;BME280;8154;50.830;12.082;2023-07-20T07:37:16;99128.78;;;29.51;33.88
16100;BME280;8154;50.830;12.082;2023-07-20T07:39:43;99128.53;;;29.53;34.15
16100;BME280;8154;50.830;12.082;2023-07-20T07:42:12;99129.13;;;29.55;34.03
16100;BME280;8154;50.830;12.082;2023-07-20T07:44:38;99137.19;;;29.55;34.19
16100;BME280;8154;50.830;12.082;2023-07-20T07:47:05;99140.94;;;29.54;34.29
16100;BME280;8154;50.830;12.082;2023-07-20T07:49:33;99138.81;;;29.56;34.01
16100;BME280;8154;50.830;12.082;2023-07-20T07:51:59;99132.28;;;29.52;34.13
16100;BME280;8154;50.830;12.082;2023-07-20T07:54:28;99149.59;;;29.56;34.07
16100;BME280;8154;50.830;12.082;2023-07-20T07:56:54;99128.88;;;29.56;33.90
16100;BME280;8154;50.830;12.082;2023-07-20T07:59:20;99135.63;;;29.59;34.02
16100;BME280;8154;50.830;12.082;2023-07-20T08:01:46;99131.88;;;29.60;33.95
16100;BME280;8154;50.830;12.082;2023-07-20T08:04:12;99140.78;;;29.60;33.83
16100;BME280;8154;50.830;12.082;2023-07-20T08:06:41;99145.34;;;29.60;34.20
16100;BME280;8154;50.830;12.082;2023-07-20T08:09:07;99140.78;;;29.60;34.21
16100;BME280;8154;50.830;12.082;2023-07-20T08:11:33;99139.72;;;29.61;33.85
16100;BME280;8154;50.830;12.082;2023-07-20T08:14:00;99135.97;;;29.62;34.19
16100;BME280;8154;50.830;12.082;2023-07-20T08:16:27;99114.59;;;29.56;34.11
16100;BME280;8154;50.830;12.082;2023-07-20T08:18:53;99122.31;;;29.64;34.15
16100;BME280;8154;50.830;12.082;2023-07-20T08:21:19;99122.31;;;29.64;33.78
16100;BME280;8154;50.830;12.082;2023-07-20T08:23:45;99133.88;;;29.64;33.83
16100;BME280;8154;50.830;12.082;2023-07-20T08:26:11;99122.31;;;29.64;34.20
16100;BME280;8154;50.830;12.082;2023-07-20T08:28:38;99128.25;;;29.66;33.92
16100;BME280;8154;50.830;12.082;2023-07-20T08:31:05;99117.47;;;29.66;34.01
16100;BME280;8154;50.830;12.082;2023-07-20T08:33:35;99124.50;;;29.67;34.11
16100;BME280;8154;50.830;12.082;2023-07-20T08:36:01;99126.13;;;29.68;34.12
16100;BME280;8154;50.830;12.082;2023-07-20T08:38:29;99122.59;;;29.67;33.95
16100;BME280;8154;50.830;12.082;2023-07-20T08:40:55;99113.59;;;29.62;34.06
16100;BME280;8154;50.830;12.082;2023-07-20T08:43:23;99123.69;;;29.66;33.98
16100;BME280;8154;50.830;12.082;2023-07-20T08:45:54;99126.63;;;29.65;34.21
16100;BME280;8154;50.830;12.082;2023-07-20T08:48:21;99129.06;;;29.66;34.10
16100;BME280;8154;50.830;12.082;2023-07-20T08:50:52;99134.94;;;29.63;34.27
16100;BME280;8154;50.830;12.082;2023-07-20T08:53:21;99122.31;;;29.64;34.21
16100;BME280;8154;50.830;12.082;2023-07-20T08:55:50;99127.69;;;29.64;34.29
16100;BME280;8154;50.830;12.082;2023-07-20T08:58:17;99115.16;;;29.58;33.89
16100;BME280;8154;50.830;12.082;2023-07-20T09:00:44;99125.31;;;29.67;34.26
16100;BME280;8154;50.830;12.082;2023-07-20T09:03:11;99125.31;;;29.67;34.19
16100;BME280;8154;50.830;12.082;2023-07-20T09:05:38;99131.28;;;29.69;34.18
16100;BME280;8154;50.830;12.082;2023-07-20T09:08:05;99115.59;;;29.66;33.90
16100;BME280;8154;50.830;12.082;2023-07-20T09:10:31;99124.00;;;29.70;33.73
16100;BME280;8154;50.830;12.082;2023-07-20T09:13:00;99124.00;;;29.70;33.92
16100;BME280;8154;50.830;12.082;2023-07-20T09:15:26;99106.84;;;29.59;33.85
16100;BME280;8154;50.830;12.082;2023-07-20T09:17:52;99116.19;;;29.68;33.95
16100;BME280;8154;50.830;12.082;2023-07-20T09:20:21;99123.19;;;29.69;34.11
16100;BME280;8154;50.830;12.082;2023-07-20T09:22:47;99122.38;;;29.69;33.93
16100;BME280;8154;50.830;12.082;2023-07-20T09:25:17;99119.44;;;29.70;33.86
16100;BME280;8154;50.830;12.082;2023-07-20T09:27:45;99120.25;;;29.71;34.13
16100;BME280;8154;50.830;12.082;2023-07-20T09:30:15;99121.06;;;29.71;33.82
16100;BME280;8154;50.830;12.082;2023-07-20T09:32:48;99129.41;;;29.70;34.11
16100;BME280;8154;50.830;12.082;2023-07-20T09:35:17;99133.72;;;29.71;33.76
16100;BME280;8154;50.830;12.082;2023-07-20T09:37:49;99128.34;;;29.71;33.85
16100;BME280;8154;50.830;12.082;2023-07-20T09:40:18;99116.72;;;29.70;33.79
16100;BME280;8154;50.830;12.082;2023-07-20T09:42:45;99131.03;;;29.71;34.17
16100;BME280;8154;50.830;12.082;2023-07-20T09:45:11;99127.75;;;29.69;33.87
16100;BME280;8154;50.830;12.082;2023-07-20T09:47:38;99122.69;;;29.72;33.99
16100;BME280;8154;50.830;12.082;2023-07-20T09:50:05;99137.25;;;29.71;34.12
16100;BME280;8154;50.830;12.082;2023-07-20T09:52:40;99132.91;;;29.70;33.79
16100;BME280;8154;50.830;12.082;2023-07-20T09:55:08;99133.72;;;29.71;34.19
16100;BME280;8154;50.830;12.082;2023-07-20T09:57:35;99125.06;;;29.69;34.14
16100;BME280;8154;50.830;12.082;2023-07-20T10:00:06;99125.06;;;29.69;34.19
16100;BME280;8154;50.830;12.082;2023-07-20T10:02:44;99131.84;;;29.71;33.75
16100;BME280;8154;50.830;12.082;2023-07-20T10:05:14;99137.00;;;29.73;34.03
16100;BME280;8154;50.830;12.082;2023-07-20T10:07:50;99138.06;;;29.72;34.29
16100;BME280;8154;50.830;12.082;2023-07-20T10:10:19;99145.06;;;29.73;33.76
16100;BME280;8154;50.830;12.082;2023-07-20T10:12:48;99145.56;;;29.70;34.01
16100;BME280;8154;50.830;12.082;2023-07-20T10:15:24;99132.69;;;29.60;34.03
16100;BME280;8154;50.830;12.082;2023-07-20T10:18:07;99143.66;;;29.70;34.17
16100;BME280;8154;50.830;12.082;2023-07-20T10:20:36;99140.97;;;29.70;33.74
16100;BME280;8154;50.830;12.082;2023-07-20T10:23:05;99138.06;;;29.72;33.91
16100;BME280;8154;50.830;12.082;2023-07-20T10:25:33;99138.06;;;29.72;33.66
16100;BME280;8154;50.830;12.082;2023-07-20T10:28:05;99135.38;;;29.72;33.80
16100;BME280;8154;50.830;12.082;2023-07-20T10:30:34;99128.09;;;29.72;33.93
16100;BME280;8154;50.830;12.082;2023-07-20T10:33:02;99124.81;;;29.70;34.12
16100;BME280;8154;50.830;12.082;2023-07-20T10:35:28;99118.63;;;29.70;33.76
16100;BME280;8154;50.830;12.082;2023-07-20T10:38:00;99103.06;;;29.60;34.08
16100;BME280;8154;50.830;12.082;2023-07-20T10:40:37;99114.78;;;29.66;34.03
16100;BME280;8154;50.830;12.082;2023-07-20T10:43:08;99105.41;;;29.68;34.13
16100;BME280;8154;50.830;12.082;2023-07-20T10:45:39;99108.34;;;29.67;34.06
16100;BME280;8154;50.830;12.082;2023-07-20T10:48:12;99104.59;;;29.68;33.95
16100;BME280;8154;50.830;12.082;2023-07-20T10:50:40;99088.91;;;29.65;34.16
16100;BME280;8154;50.830;12.082;2023-07-20T10:53:14;99095.91;;;29.66;34.03
16100;BME280;8154;50.830;12.082;2023-07-20T10:55:44;99119.13;;;29.67;34.21
16100;BME280;8154;50.830;12.082;2023-07-20T10:58:14;99162.22;;;29.67;34.18
16100;BME280;8154;50.830;12.082;2023-07-20T11:01:00;99162.81;;;29.57;34.11
16100;BME280;8154;50.830;12.082;2023-07-20T11:03:37;99184.81;;;29.66;34.20
16100;BME280;8154;50.830;12.082;2023-07-20T11:09:02;99163.25;;;29.66;34.24
16100;BME280;8154;50.830;12.082;2023-07-20T11:11:32;99173.78;;;29.67;33.98
16100;BME280;8154;50.830;12.082;2023-07-20T11:14:08;99176.47;;;29.67;34.11
16100;BME280;8154;50.830;12.082;2023-07-20T11:16:44;99175.44;;;29.68;34.10
16100;BME280;8154;50.830;12.082;2023-07-20T11:21:43;99170.28;;;29.67;34.19
16100;BME280;8154;50.830;12.082;2023-07-20T11:24:09;99168.41;;;29.67;34.06
16100;BME280;8154;50.830;12.082;2023-07-20T11:26:48;99176.72;;;29.66;34.16
16100;BME280;8154;50.830;12.082;2023-07-20T11:29:17;99177.56;;;29.66;33.84
16100;BME280;8154;50.830;12.082;2023-07-20T11:31:44;99179.16;;;29.67;34.18
16100;BME280;8154;50.830;12.082;2023-07-20T11:34:12;99184.81;;;29.66;34.14
16100;BME280;8154;50.830;12.082;2023-07-20T11:36:46;99172.41;;;29.65;33.78
16100;BME280;8154;50.830;12.082;2023-07-20T11:39:14;99176.72;;;29.66;34.01
16100;BME280;8154;50.830;12.082;2023-07-20T11:41:46;99172.66;;;29.63;34.09
16100;BME280;8154;50.830;12.082;2023-07-20T11:44:13;99172.41;;;29.65;33.94
16100;BME280;8154;50.830;12.082;2023-07-20T11:46:44;99168.88;;;29.64;34.14
16100;BME280;8154;50.830;12.082;2023-07-20T11:49:11;99173.22;;;29.65;34.10
16100;BME280;8154;50.830;12.082;2023-07-20T11:51:39;99183.19;;;29.65;34.06
16100;BME280;8154;50.830;12.082;2023-07-20T11:54:07;99176.72;;;29.66;33.72
16100;BME280;8154;50.830;12.082;2023-07-20T11:56:34;99171.34;;;29.66;33.72
16100;BME280;8154;50.830;12.082;2023-07-20T11:59:00;99170.28;;;29.67;34.07
16100;BME280;8154;50.830;12.082;2023-07-20T12:01:29;99164.09;;;29.66;34.08
16100;BME280;8154;50.830;12.082;2023-07-20T12:03:59;99166.19;;;29.64;33.85
16100;BME280;8154;50.830;12.082;2023-07-20T12:06:28;99164.56;;;29.63;33.76
16100;BME280;8154;50.830;12.082;2023-07-20T12:08:55;99171.56;;;29.64;34.13
16100;BME280;8154;50.830;12.082;2023-07-20T12:13:59;99165.75;;;29.56;33.69
16100;BME280;8154;50.830;12.082;2023-07-20T12:16:29;99173.47;;;29.64;34.14
16100;BME280;8154;50.830;12.082;2023-07-20T12:19:12;99177.78;;;29.65;33.75
16100;BME280;8154;50.830;12.082;2023-07-20T12:21:40;99188.56;;;29.65;33.78
16100;BME280;8154;50.830;12.082;2023-07-20T12:24:08;99177.66;;;29.60;34.12
16100;BME280;8154;50.830;12.082;2023-07-20T12:26:36;99185.88;;;29.65;34.14
16100;BME280;8154;50.830;12.082;2023-07-20T12:29:03;99180.72;;;29.63;33.94
16100;BME280;8154;50.830;12.082;2023-07-20T12:31:33;99193.13;;;29.64;34.07
16100;BME280;8154;50.830;12.082;2023-07-20T12:33:59;99191.25;;;29.65;34.12
16100;BME280;8154;50.830;12.082;2023-07-20T12:36:25;99187.50;;;29.66;33.71
16100;BME280;8154;50.830;12.082;2023-07-20T12:38:52;99186.94;;;29.64;34.04
16100;BME280;8154;50.830;12.082;2023-07-20T12:41:18;99185.38;;;29.68;33.74
16100;BME280;8154;50.830;12.082;2023-07-20T12:43:45;99178.03;;;29.63;34.00
16100;BME280;8154;50.830;12.082;2023-07-20T12:46:12;99191.00;;;29.66;33.69
16100;BME280;8154;50.830;12.082;2023-07-20T12:48:40;99163.63;;;29.58;33.90
16100;BME280;8154;50.830;12.082;2023-07-20T12:51:08;99171.34;;;29.66;33.79
16100;BME280;8154;50.830;12.082;2023-07-20T12:53:35;99178.38;;;29.67;33.86
16100;BME280;8154;50.830;12.082;2023-07-20T12:56:01;99176.72;;;29.66;34.14
16100;BME280;8154;50.830;12.082;2023-07-20T12:58:28;99178.38;;;29.67;33.75
16100;BME280;8154;50.830;12.082;2023-07-20T13:00:55;99170.41;;;29.60;34.04
16100;BME280;8154;50.830;12.082;2023-07-20T13:03:21;99170.53;;;29.65;33.98
16100;BME280;8154;50.830;12.082;2023-07-20T13:05:47;99177.19;;;29.63;33.77
16100;BME280;8154;50.830;12.082;2023-07-20T13:08:14;99170.66;;;29.59;33.94
16100;BME280;8154;50.830;12.082;2023-07-20T13:10:41;99184.56;;;29.67;34.07
16100;BME280;8154;50.830;12.082;2023-07-20T13:13:07;99189.16;;;29.67;33.95
16100;BME280;8154;50.830;12.082;2023-07-20T13:15:41;99195.34;;;29.67;34.06
16100;BME280;8154;50.830;12.082;2023-07-20T13:18:08;99194.84;;;29.70;33.62
16100;BME280;8154;50.830;12.082;2023-07-20T13:20:34;99185.97;;;29.70;33.72
16100;BME280;8154;50.830;12.082;2023-07-20T13:23:00;99186.22;;;29.68;33.62
16100;BME280;8154;50.830;12.082;2023-07-20T13:25:27;99180.00;;;29.68;34.01